Ann Arbor, MI

11:02 PM EDT on September 20, 2014 (GMT -0400)
Walker Briar Works | Change Station
CLOSE
Current Station
Personal Weather Station
Location: Ann Arbor, MI
Elevation: 961 ft
Nearby Weather Stations

Elev 961 ft 42.26 °N, 83.77 °W | Updated 55 seconds ago

Mostly Cloudy
Mostly Cloudy
63.3 °F
Feels Like 63.3 °F
N
0.7
Wind Variable Wind from ESE
Gusts 3.8 mph

Today
High -- | Low -- °F
--% Chance of Precip.
Yesterday
High -- | Low -- °F
Precip. -- in
7:20 AM 7:36 PM
Waning Crescent, 9% visible
Pressure 29.80 in
Visibility 10.0 miles
Clouds Overcast 800 ft
Dew Point 63 °F
Humidity 99%
Rainfall 0.72 in
Snow Depth Not available.
UV 0 out of 12
Pollen 2.70 out of 12
Ozone Good
PM2.5 Good
Flu Activity Not available.
METAR KARB 210253Z AUTO 22007KT 10SM OVC008 18/16 A2981 RMK AO2 SLP091 60003 T01780161 56011 $

More Conditions Fewer Conditions

Pressure 29.80 in
Visibility 10.0 miles
Clouds Overcast 800 ft
Dew Point 63 °F
Humidity 99%
Rainfall 0.72 in
Snow Depth Not available.
UV 0 out of 12
Pollen 2.70 out of 12
Ozone Good
PM2.5 Good
Flu Activity Not available.
METAR KARB 210253Z AUTO 22007KT 10SM OVC008 18/16 A2981 RMK AO2 SLP091 60003 T01780161 56011 $

More Conditions Fewer Conditions

10-Day Weather Forecast

Almanac

Astronomy

Sep. 20, 2014 Rise Set
Actual Time 7:20 AM EDT 7:36 PM EDT
Civil Twilight 6:52 AM EDT 8:04 PM EDT
Nautical Twilight 6:19 AM EDT 8:36 PM EDT
Astronomical Twilight 5:45 AM EDT 9:10 PM EDT
Moon 3:55 AM EDT (9/20) 5:41 PM EDT (9/20)
Length of Visible Light 13h 11m
Length of Day
12h 15m
Tomorrow will be 2m 50s shorter.
Waning Crescent, 9% of the Moon is Illuminated
Today
Waning Crescent
Sep 24
New
Oct 1
First Quarter
Oct 8
Full
Oct 15
Last Quarter

Today's Extremes

State Highs State Lows

Community

WunderPhotos

Upload Photos

1,755,067 photos uploaded!

WunderBlogs® & News

Nearby

Air Quality

  Air Quality AQ Index Pollutant
Yesterday Good
PM2.5
Yesterday Good
OZONE
Current Good
OZONE
Current Good
PM2.5
Saturday Good
OZONE
Saturday Good
PM2.5
Sunday Good
OZONE
Sunday Good
PM2.5
Monday Good
OZONE
Monday Good
PM2.5

Snow Depth

Station Depth Elevation
No new snow has been reported.

Earthquake Activity

City Distance Mag. Time & Date
No recent earthquake activity has been reported nearby.
Minimum magnitude displayed is 2.5.

Coastal Water Temperatures

Place Temperature
No Stations Reporting

Nearby Weather Stations